ADDS METAR Data INFO
IDs: Format: Raw Decoded Include TAF

Data at: 1020 UTC 12 Dec 2017

KMKO 120953Z AUTO 34007KT 10SM CLR 03/M02 A3035 RMK AO2 SLP275 T00281017
KMKO 120853Z AUTO 35016KT 10SM CLR 06/M02 A3033 RMK AO2 PK WND 36026/0839 SLP270 T00561017 51021
KMKO 120753Z AUTO 35017G21KT 10SM CLR 07/M01 A3032 RMK AO2 SLP265 T00671011
KMKO 120653Z AUTO 35012KT 10SM CLR 08/M02 A3029 RMK AO2 SLP255 T00781017
KMKO 120553Z AUTO 34018G23KT 10SM CLR 09/M02 A3027 RMK AO2 PK WND 35027/0504 SLP248 T00941017 10133 20094 402331017 53028
KMKO 120453Z AUTO 34017G22KT 10SM CLR 10/M02 A3024 RMK AO2 SLP238 T01001022
KMKO 120353Z AUTO 34014G21KT 10SM CLR 11/M03 A3021 RMK AO2 SLP229 T01111028
KMKO 120253Z AUTO 35013KT 10SM CLR 12/M05 A3019 RMK AO2 SLP222 T01171050 51037
KMKO 120153Z AUTO 34011KT 10SM CLR 12/M07 A3015 RMK AO2 SLP213 T01221072
KMKO 120053Z AUTO 33010KT 10SM CLR 13/M07 A3013 RMK AO2 SLP204 T01331067
KMKO 112353Z AUTO 26007KT 10SM CLR 12/M08 A3008 RMK AO2 SLP186 T01221078 10233 20122 53012
KMKO 112253Z AUTO 32007KT 10SM CLR 16/M08 A3006 RMK AO2 SLP180 T01561078
KMKO 112153Z AUTO 32009KT 10SM CLR 19/M09 A3005 RMK AO2 SLP174 T01941089
KMKO 112053Z AUTO 33014KT 10SM CLR 21/M11 A3004 RMK AO2 SLP170 T02111111 55020
KMKO 111953Z AUTO 31011KT 10SM CLR 23/M10 A3004 RMK AO2 SLP169 T02281100
KMKO 111853Z AUTO 27011KT 10SM CLR 22/M11 A3006 RMK AO2 SLP179 T02171106
KMKO 111753Z AUTO 27010KT 10SM CLR 20/M09 A3010 RMK AO2 SLP190 T02001089 10200 21017 58022
KMKO 111653Z AUTO 23009KT 10SM CLR 17/M06 A3013 RMK AO2 SLP203 T01671061
KMKO 111553Z AUTO 30005KT 10SM CLR 12/M04 A3017 RMK AO2 SLP217 T01221044
KMKO 111453Z AUTO 18004KT 10SM CLR 05/M01 A3017 RMK AO2 SLP215 T00501011 58010
KMKO 111353Z AUTO 17005KT 10SM CLR 00/M02 A3018 RMK AO2 SLP222 T00001022
KMKO 111253Z AUTO 17006KT 10SM CLR M02/M03 A3018 RMK AO2 SLP223 T10171033
KMKO 111153Z AUTO 17005KT 10SM CLR M01/M03 A3020 RMK AO2 SLP226 T10111028 10078 21017 55004
KMKO 111053Z AUTO 16005KT 10SM CLR 01/M02 A3019 RMK AO2 SLP224 T00061017
KMKO 110953Z AUTO 17006KT 10SM CLR 00/M03 A3019 RMK AO2 SLP224 T00001028
KMKO 110853Z AUTO 00000KT 10SM CLR 02/M03 A3021 RMK AO2 SLP229 T00221028 56011
KMKO 110753Z AUTO 19004KT 10SM CLR 01/M05 A3022 RMK AO2 SLP232 T00111050
KMKO 110653Z AUTO 00000KT 10SM CLR 03/M06 A3023 RMK AO2 SLP235 T00281056
KMKO 110553Z AUTO 25004KT 10SM CLR 08/M06 A3024 RMK AO2 SLP239 T00781056 10133 20044 401831056 50002
KMKO 110453Z AUTO 24004KT 10SM CLR 07/M06 A3024 RMK AO2 SLP241 T00671061
KMKO 110353Z AUTO 26004KT 10SM CLR 08/M06 A3023 RMK AO2 SLP238 T00831061
KMKO 110253Z AUTO 25007KT 10SM CLR 09/M06 A3023 RMK AO2 SLP238 T00891061 51001
KMKO 110153Z AUTO 25007KT 10SM CLR 09/M06 A3023 RMK AO2 SLP241 T00891061
KMKO 110053Z AUTO 25005KT 10SM CLR 10/M06 A3024 RMK AO2 SLP242 T01001061
KMKO 102353Z AUTO 31005KT 10SM CLR 13/M07 A3023 RMK AO2 SLP238 T01331067 10183 20122 52006
KMKO 102253Z AUTO 33004KT 10SM CLR 15/M06 A3022 RMK AO2 SLP236 T01501061